createdAt,value
2024-05-09T00:00:31.602Z,95736.00
2024-05-09T00:01:28.625Z,95735.00
2024-05-09T00:02:27.697Z,95734.00
2024-05-09T00:03:27.574Z,95732.00
2024-05-09T00:04:27.626Z,95733.00
2024-05-09T00:05:27.643Z,95731.00
2024-05-09T00:06:27.585Z,95732.00
2024-05-09T00:07:27.589Z,95732.00
2024-05-09T00:08:27.585Z,95734.00
2024-05-09T00:09:27.673Z,95729.00
2024-05-09T00:11:27.640Z,95730.00
2024-05-09T00:12:27.770Z,95730.00
2024-05-09T00:13:27.577Z,95731.00
2024-05-09T00:14:27.669Z,95731.00
2024-05-09T00:15:27.584Z,95732.00
2024-05-09T00:16:27.600Z,95731.00
2024-05-09T00:17:27.741Z,95730.00
2024-05-09T00:18:27.875Z,95732.00
2024-05-09T00:19:27.873Z,95732.00
2024-05-09T00:20:33.489Z,95734.00
2024-05-09T00:21:28.878Z,95732.00
2024-05-09T00:22:27.897Z,95733.00
2024-05-09T00:23:27.908Z,95733.00
2024-05-09T00:24:27.874Z,95735.00
2024-05-09T00:25:27.872Z,95735.00
2024-05-09T00:26:27.969Z,95732.00
2024-05-09T00:27:27.924Z,95733.00
2024-05-09T00:28:27.936Z,95732.00
2024-05-09T00:29:27.951Z,95730.00
2024-05-09T00:30:33.833Z,95730.00
2024-05-09T00:31:28.960Z,95728.00
2024-05-09T00:32:28.086Z,95729.00
2024-05-09T00:33:28.191Z,95727.00
2024-05-09T00:34:27.987Z,95725.00
2024-05-09T00:35:28.034Z,95723.00
2024-05-09T00:36:27.935Z,95723.00
2024-05-09T00:37:27.933Z,95722.00
2024-05-09T00:38:27.971Z,95722.00
2024-05-09T00:39:27.971Z,95722.00
2024-05-09T00:40:35.720Z,95722.00
2024-05-09T00:41:29.056Z,95718.00
2024-05-09T00:42:27.973Z,95716.00
2024-05-09T00:43:27.981Z,95717.00
2024-05-09T00:44:28.109Z,95717.00
2024-05-09T00:45:27.992Z,95716.00
2024-05-09T00:46:27.963Z,95715.00
2024-05-09T00:47:28.066Z,95716.00
2024-05-09T00:48:28.062Z,95714.00
2024-05-09T00:49:28.099Z,95715.00
2024-05-09T00:50:35.575Z,95712.00
2024-05-09T00:51:29.004Z,95711.00
2024-05-09T00:52:28.013Z,95708.00
2024-05-09T00:53:28.143Z,95706.00
2024-05-09T00:54:28.018Z,95706.00
2024-05-09T00:55:27.977Z,95702.00
2024-05-09T00:56:29.054Z,95701.00
2024-05-09T00:57:28.038Z,95700.00
2024-05-09T00:58:28.034Z,95698.00
2024-05-09T00:59:28.134Z,95696.00
2024-05-09T01:00:35.686Z,95694.00
2024-05-09T01:01:29.131Z,95694.00
2024-05-09T01:02:28.127Z,95691.00
2024-05-09T01:03:28.325Z,95691.00
2024-05-09T01:04:28.082Z,95687.00
2024-05-09T01:05:28.065Z,95686.00
2024-05-09T01:06:28.073Z,95685.00
2024-05-09T01:07:28.092Z,95684.00
2024-05-09T01:08:28.106Z,95683.00
2024-05-09T01:09:28.107Z,95683.00
2024-05-09T01:10:33.986Z,95682.00
2024-05-09T01:11:29.190Z,95683.00
2024-05-09T01:12:28.274Z,95681.00
2024-05-09T01:13:28.103Z,95682.00
2024-05-09T01:14:28.169Z,95683.00
2024-05-09T01:15:28.101Z,95682.00
2024-05-09T01:16:28.098Z,95682.00
2024-05-09T01:17:28.251Z,95684.00
2024-05-09T01:18:28.270Z,95681.00
2024-05-09T01:19:28.339Z,95683.00
2024-05-09T01:20:37.486Z,95684.00
2024-05-09T01:21:29.178Z,95684.00
2024-05-09T01:22:28.185Z,95684.00
2024-05-09T01:23:28.250Z,95684.00
2024-05-09T01:24:28.170Z,95684.00
2024-05-09T01:25:28.170Z,95686.00
2024-05-09T01:26:28.275Z,95686.00
2024-05-09T01:27:28.190Z,95687.00
2024-05-09T01:28:28.214Z,95687.00
2024-05-09T01:29:28.338Z,95687.00
2024-05-09T01:30:34.593Z,95689.00
2024-05-09T01:31:29.259Z,95688.00
2024-05-09T01:32:28.373Z,95689.00
2024-05-09T01:33:28.349Z,95690.00
2024-05-09T01:34:28.204Z,95688.00
2024-05-09T01:35:28.277Z,95687.00
2024-05-09T01:36:28.218Z,95688.00
2024-05-09T01:37:28.227Z,95687.00
2024-05-09T01:38:28.406Z,95689.00
2024-05-09T01:39:28.254Z,95687.00
2024-05-09T01:40:36.832Z,95690.00
2024-05-09T01:41:29.357Z,95688.00
2024-05-09T01:42:28.282Z,95687.00
2024-05-09T01:43:28.254Z,95688.00
2024-05-09T01:44:28.380Z,95686.00
2024-05-09T01:45:28.256Z,95685.00
2024-05-09T01:46:28.260Z,95684.00
2024-05-09T01:47:28.427Z,95686.00
2024-05-09T01:48:28.425Z,95685.00
2024-05-09T01:49:28.389Z,95685.00
2024-05-09T01:50:37.724Z,95683.00
2024-05-09T01:51:29.277Z,95685.00
2024-05-09T01:52:28.303Z,95687.00
2024-05-09T01:53:28.383Z,95684.00
2024-05-09T01:54:28.291Z,95685.00
2024-05-09T01:55:28.281Z,95687.00
2024-05-09T01:56:29.971Z,95688.00
2024-05-09T01:57:28.344Z,95687.00
2024-05-09T01:58:28.309Z,95686.00
2024-05-09T01:59:28.573Z,95687.00
2024-05-09T02:00:38.310Z,95685.00
2024-05-09T02:01:29.360Z,95686.00
2024-05-09T02:02:29.467Z,95685.00
2024-05-09T02:03:28.554Z,95685.00
2024-05-09T02:04:28.459Z,95686.00
2024-05-09T02:05:28.428Z,95686.00
2024-05-09T02:06:28.340Z,95685.00
2024-05-09T02:07:28.320Z,95685.00
2024-05-09T02:08:28.476Z,95685.00
2024-05-09T02:09:28.359Z,95686.00
2024-05-09T02:11:28.459Z,95685.00
2024-05-09T02:12:28.481Z,95684.00
2024-05-09T02:13:28.344Z,95684.00
2024-05-09T02:14:28.441Z,95683.00
2024-05-09T02:15:28.437Z,95684.00
2024-05-09T02:16:28.322Z,95684.00
2024-05-09T02:17:28.592Z,95683.00
2024-05-09T02:18:28.518Z,95684.00
2024-05-09T02:19:28.452Z,95682.00
2024-05-09T02:20:34.117Z,95684.00
2024-05-09T02:21:29.350Z,95685.00
2024-05-09T02:22:28.380Z,95685.00
2024-05-09T02:23:28.419Z,95685.00
2024-05-09T02:24:28.358Z,95683.00
2024-05-09T02:25:28.389Z,95683.00
2024-05-09T02:26:28.452Z,95682.00
2024-05-09T02:27:28.366Z,95681.00
2024-05-09T02:28:28.422Z,95682.00
2024-05-09T02:29:28.605Z,95681.00
2024-05-09T02:30:36.388Z,95679.00
2024-05-09T02:31:29.416Z,95680.00
2024-05-09T02:32:28.586Z,95678.00
2024-05-09T02:33:28.641Z,95680.00
2024-05-09T02:34:28.474Z,95679.00
2024-05-09T02:35:28.424Z,95677.00
2024-05-09T02:36:28.425Z,95675.00
2024-05-09T02:37:28.410Z,95675.00
2024-05-09T02:38:28.464Z,95674.00
2024-05-09T02:39:28.433Z,95676.00
2024-05-09T02:40:36.540Z,95676.00
2024-05-09T02:41:29.497Z,95676.00
2024-05-09T02:42:28.431Z,95675.00
2024-05-09T02:43:28.415Z,95675.00
2024-05-09T02:44:28.510Z,95673.00
2024-05-09T02:45:28.412Z,95674.00
2024-05-09T02:46:28.418Z,95675.00
2024-05-09T02:47:28.663Z,95674.00
2024-05-09T02:48:28.547Z,95673.00
2024-05-09T02:49:28.741Z,95673.00
2024-05-09T02:50:34.640Z,95673.00
2024-05-09T02:51:29.440Z,95672.00
2024-05-09T02:52:28.476Z,95672.00
2024-05-09T02:53:28.534Z,95673.00
2024-05-09T02:54:28.455Z,95674.00
2024-05-09T02:55:28.453Z,95676.00
2024-05-09T02:56:28.578Z,95677.00
2024-05-09T02:57:29.353Z,95675.00
2024-05-09T02:58:28.510Z,95676.00
2024-05-09T02:59:28.625Z,95674.00
2024-05-09T03:00:36.906Z,95675.00
2024-05-09T03:01:29.580Z,95673.00
2024-05-09T03:02:28.536Z,95674.00
2024-05-09T03:03:28.845Z,95673.00
2024-05-09T03:04:28.542Z,95675.00
2024-05-09T03:05:28.594Z,95674.00
2024-05-09T03:06:28.519Z,95673.00
2024-05-09T03:07:28.568Z,95673.00
2024-05-09T03:08:28.624Z,95673.00
2024-05-09T03:09:28.546Z,95673.00
2024-05-09T03:10:32.404Z,95671.00
2024-05-09T03:11:29.617Z,95670.00
2024-05-09T03:12:28.628Z,95670.00
2024-05-09T03:13:28.544Z,95670.00
2024-05-09T03:14:28.711Z,95668.00
2024-05-09T03:15:28.554Z,95670.00
2024-05-09T03:16:28.534Z,95672.00
2024-05-09T03:17:28.705Z,95671.00
2024-05-09T03:18:28.771Z,95671.00
2024-05-09T03:19:28.616Z,95672.00
2024-05-09T03:20:33.624Z,95674.00
2024-05-09T03:21:29.549Z,95675.00
2024-05-09T03:22:28.568Z,95677.00
2024-05-09T03:23:28.643Z,95676.00
2024-05-09T03:24:28.551Z,95677.00
2024-05-09T03:25:28.573Z,95676.00
2024-05-09T03:26:28.707Z,95678.00
2024-05-09T03:27:28.586Z,95677.00
2024-05-09T03:28:28.611Z,95677.00
2024-05-09T03:29:28.665Z,95678.00
2024-05-09T03:30:38.480Z,95677.00
2024-05-09T03:31:29.637Z,95678.00
2024-05-09T03:32:28.808Z,95678.00
2024-05-09T03:33:28.835Z,95676.00
2024-05-09T03:34:28.697Z,95675.00
2024-05-09T03:35:28.684Z,95676.00
2024-05-09T03:36:28.641Z,95676.00
2024-05-09T03:37:28.636Z,95678.00
2024-05-09T03:38:28.724Z,95677.00
2024-05-09T03:39:28.674Z,95678.00
2024-05-09T03:40:31.016Z,95678.00
2024-05-09T03:41:29.054Z,95677.00
2024-05-09T03:42:28.964Z,95677.00
2024-05-09T03:43:29.012Z,95679.00
2024-05-09T03:44:29.187Z,95678.00
2024-05-09T03:45:29.072Z,95677.00
2024-05-09T03:46:29.083Z,95676.00
2024-05-09T03:47:29.325Z,95675.00
2024-05-09T03:48:29.191Z,95677.00
2024-05-09T03:49:29.241Z,95677.00
2024-05-09T03:50:33.784Z,95676.00
2024-05-09T03:51:30.264Z,95678.00
2024-05-09T03:52:29.218Z,95679.00
2024-05-09T03:53:29.328Z,95681.00
2024-05-09T03:54:29.232Z,95683.00
2024-05-09T03:55:29.235Z,95684.00
2024-05-09T03:56:29.311Z,95686.00
2024-05-09T03:57:29.347Z,95688.00
2024-05-09T03:58:29.272Z,95689.00
2024-05-09T03:59:29.299Z,95689.00
2024-05-09T04:01:29.375Z,95691.00
2024-05-09T04:02:29.288Z,95693.00
2024-05-09T04:03:29.362Z,95692.00
2024-05-09T04:04:29.315Z,95694.00
2024-05-09T04:05:29.306Z,95696.00
2024-05-09T04:06:29.267Z,95696.00
2024-05-09T04:07:29.289Z,95697.00
2024-05-09T04:08:29.333Z,95698.00
2024-05-09T04:09:29.364Z,95699.00
2024-05-09T04:11:29.586Z,95700.00
2024-05-09T04:12:29.504Z,95699.00
2024-05-09T04:13:29.521Z,95700.00
2024-05-09T04:14:29.793Z,95699.00
2024-05-09T04:15:29.720Z,95700.00
2024-05-09T04:16:29.811Z,95698.00
2024-05-09T04:17:30.142Z,95699.00
2024-05-09T04:18:30.017Z,95699.00
2024-05-09T04:19:30.106Z,95699.00
2024-05-09T04:20:37.607Z,95697.00
2024-05-09T04:21:31.148Z,95699.00
2024-05-09T04:22:30.124Z,95699.00
2024-05-09T04:23:30.167Z,95698.00
2024-05-09T04:24:30.133Z,95701.00
2024-05-09T04:25:30.141Z,95701.00
2024-05-09T04:26:30.202Z,95700.00
2024-05-09T04:27:30.176Z,95701.00
2024-05-09T04:28:30.169Z,95702.00
2024-05-09T04:29:30.225Z,95703.00
2024-05-09T04:30:36.864Z,95705.00
2024-05-09T04:31:31.163Z,95707.00
2024-05-09T04:32:30.298Z,95705.00
2024-05-09T04:33:30.851Z,95706.00
2024-05-09T04:34:30.305Z,95708.00
2024-05-09T04:35:30.271Z,95706.00
2024-05-09T04:36:30.167Z,95705.00
2024-05-09T04:37:30.221Z,95706.00
2024-05-09T04:38:30.256Z,95706.00
2024-05-09T04:39:30.179Z,95705.00
2024-05-09T04:40:34.260Z,95704.00
2024-05-09T04:41:31.290Z,95706.00
2024-05-09T04:42:30.208Z,95707.00
2024-05-09T04:43:30.233Z,95705.00
2024-05-09T04:44:30.235Z,95704.00
2024-05-09T04:45:30.205Z,95706.00
2024-05-09T04:46:30.201Z,95707.00
2024-05-09T04:47:30.438Z,95706.00
2024-05-09T04:48:30.315Z,95708.00
2024-05-09T04:49:30.289Z,95707.00
2024-05-09T04:50:36.636Z,95710.00
2024-05-09T04:51:31.209Z,95710.00
2024-05-09T04:52:30.240Z,95710.00
2024-05-09T04:53:30.308Z,95716.00
2024-05-09T04:54:37.634Z,95716.00
2024-05-09T04:55:37.625Z,95715.00
2024-05-09T04:56:37.652Z,95718.00
2024-05-09T04:57:37.622Z,95718.00
2024-05-09T04:58:37.614Z,95718.00
2024-05-09T04:59:37.625Z,95718.00
2024-05-09T05:00:38.720Z,95719.00
2024-05-09T05:01:37.653Z,95719.00
2024-05-09T05:02:37.752Z,95721.00
2024-05-09T05:03:37.718Z,95721.00
2024-05-09T05:04:37.674Z,95721.00
2024-05-09T05:05:37.696Z,95722.00
2024-05-09T05:06:37.608Z,95722.00
2024-05-09T05:07:37.614Z,95721.00
2024-05-09T05:08:37.735Z,95722.00
2024-05-09T05:09:37.630Z,95719.00
2024-05-09T05:10:37.634Z,95718.00
2024-05-09T05:11:37.718Z,95719.00
2024-05-09T05:12:37.635Z,95718.00
2024-05-09T05:13:40.897Z,95719.00
2024-05-09T05:14:37.701Z,95720.00
2024-05-09T05:15:37.932Z,95719.00
2024-05-09T05:16:37.678Z,95722.00
2024-05-09T05:17:38.054Z,95722.00
2024-05-09T05:18:37.721Z,95724.00
2024-05-09T05:19:37.819Z,95725.00
2024-05-09T05:20:37.751Z,95725.00
2024-05-09T05:21:37.674Z,95723.00
2024-05-09T05:22:37.676Z,95725.00
2024-05-09T05:23:37.694Z,95724.00
2024-05-09T05:24:37.671Z,95722.00
2024-05-09T05:25:37.678Z,95723.00
2024-05-09T05:26:37.769Z,95723.00
2024-05-09T05:27:37.678Z,95724.00
2024-05-09T05:28:37.698Z,95723.00
2024-05-09T05:29:37.775Z,95727.00
2024-05-09T05:30:37.831Z,95724.00
2024-05-09T05:31:37.749Z,95724.00
2024-05-09T05:32:37.850Z,95726.00
2024-05-09T05:33:37.819Z,95727.00
2024-05-09T05:34:37.750Z,95727.00
2024-05-09T05:35:37.750Z,95729.00
2024-05-09T05:36:37.695Z,95731.00
2024-05-09T05:37:37.714Z,95731.00
2024-05-09T05:38:37.692Z,95732.00
2024-05-09T05:39:37.737Z,95732.00
2024-05-09T05:40:38.851Z,95733.00
2024-05-09T05:41:37.728Z,95733.00
2024-05-09T05:42:37.735Z,95734.00
2024-05-09T05:43:37.706Z,95735.00
2024-05-09T05:44:37.774Z,95733.00
2024-05-09T05:45:37.886Z,95735.00
2024-05-09T05:46:37.724Z,95733.00
2024-05-09T05:47:37.815Z,95734.00
2024-05-09T05:48:37.786Z,95735.00
2024-05-09T05:49:37.890Z,95737.00
2024-05-09T05:50:38.684Z,95735.00
2024-05-09T05:51:37.759Z,95737.00
2024-05-09T05:52:37.821Z,95735.00
2024-05-09T05:53:37.908Z,95735.00
2024-05-09T05:54:37.878Z,95735.00
2024-05-09T05:55:38.004Z,95734.00
2024-05-09T05:56:38.061Z,95734.00
2024-05-09T05:57:38.041Z,95734.00
2024-05-09T05:58:38.109Z,95733.00
2024-05-09T05:59:38.255Z,95735.00
2024-05-09T06:00:40.115Z,95732.00
2024-05-09T06:01:38.352Z,95733.00
2024-05-09T06:02:38.386Z,95732.00
2024-05-09T06:03:38.567Z,95731.00
2024-05-09T06:04:38.316Z,95731.00
2024-05-09T06:05:38.308Z,95731.00
2024-05-09T06:06:38.254Z,95730.00
2024-05-09T06:07:38.276Z,95731.00
2024-05-09T06:08:38.360Z,95732.00
2024-05-09T06:09:38.294Z,95731.00
2024-05-09T06:10:40.519Z,95732.00
2024-05-09T06:11:38.432Z,95730.00
2024-05-09T06:12:38.267Z,95729.00
2024-05-09T06:13:38.259Z,95729.00
2024-05-09T06:14:38.333Z,95730.00
2024-05-09T06:15:38.271Z,95729.00
2024-05-09T06:16:38.284Z,95726.00
2024-05-09T06:17:38.396Z,95728.00
2024-05-09T06:18:38.370Z,95729.00
2024-05-09T06:19:38.322Z,95728.00
2024-05-09T06:20:38.630Z,95728.00
2024-05-09T06:21:38.286Z,95727.00
2024-05-09T06:22:38.313Z,95727.00
2024-05-09T06:23:38.473Z,95725.00
2024-05-09T06:24:38.292Z,95726.00
2024-05-09T06:25:38.514Z,95724.00
2024-05-09T06:26:38.367Z,95726.00
2024-05-09T06:27:38.315Z,95725.00
2024-05-09T06:28:38.282Z,95723.00
2024-05-09T06:29:38.398Z,95725.00
2024-05-09T06:30:40.984Z,95724.00
2024-05-09T06:31:38.317Z,95724.00
2024-05-09T06:32:38.515Z,95724.00
2024-05-09T06:33:38.416Z,95724.00
2024-05-09T06:34:38.376Z,95723.00
2024-05-09T06:35:38.551Z,95723.00
2024-05-09T06:36:38.322Z,95722.00
2024-05-09T06:37:38.302Z,95722.00
2024-05-09T06:38:38.472Z,95718.00
2024-05-09T06:39:38.297Z,95719.00
2024-05-09T06:40:40.091Z,95719.00
2024-05-09T06:41:38.416Z,95716.00
2024-05-09T06:42:38.336Z,95720.00
2024-05-09T06:43:38.325Z,95715.00
2024-05-09T06:44:38.414Z,95717.00
2024-05-09T06:45:38.340Z,95717.00
2024-05-09T06:46:38.338Z,95716.00
2024-05-09T06:47:38.534Z,95718.00
2024-05-09T06:48:38.488Z,95720.00
2024-05-09T06:49:38.349Z,95720.00
2024-05-09T06:50:39.662Z,95720.00
2024-05-09T06:51:38.405Z,95723.00
2024-05-09T06:52:38.365Z,95723.00
2024-05-09T06:53:38.413Z,95724.00
2024-05-09T06:54:38.356Z,95724.00
2024-05-09T06:55:38.394Z,95723.00
2024-05-09T06:56:38.421Z,95724.00
2024-05-09T06:57:40.574Z,95723.00
2024-05-09T06:58:38.373Z,95725.00
2024-05-09T06:59:38.472Z,95722.00
2024-05-09T07:00:40.718Z,95719.00
2024-05-09T07:01:38.467Z,95717.00
2024-05-09T07:02:38.532Z,95718.00
2024-05-09T07:03:38.478Z,95717.00
2024-05-09T07:04:38.425Z,95718.00
2024-05-09T07:05:38.412Z,95720.00
2024-05-09T07:06:38.380Z,95720.00
2024-05-09T07:07:38.369Z,95723.00
2024-05-09T07:08:38.491Z,95723.00
2024-05-09T07:09:38.367Z,95725.00
2024-05-09T07:10:38.637Z,95724.00
2024-05-09T07:11:39.087Z,95723.00
2024-05-09T07:12:38.395Z,95723.00
2024-05-09T07:13:38.423Z,95724.00
2024-05-09T07:14:38.756Z,95721.00
2024-05-09T07:15:38.400Z,95722.00
2024-05-09T07:16:38.395Z,95719.00
2024-05-09T07:17:38.604Z,95720.00
2024-05-09T07:18:38.648Z,95719.00
2024-05-09T07:19:38.544Z,95719.00
2024-05-09T07:20:38.451Z,95718.00
2024-05-09T07:21:38.396Z,95717.00
2024-05-09T07:22:38.409Z,95714.00
2024-05-09T07:23:38.650Z,95712.00
2024-05-09T07:24:38.380Z,95710.00
2024-05-09T07:25:38.475Z,95712.00
2024-05-09T07:26:38.442Z,95708.00
2024-05-09T07:27:38.395Z,95707.00
2024-05-09T07:28:38.392Z,95704.00
2024-05-09T07:29:38.958Z,95706.00
2024-05-09T07:30:38.393Z,95705.00
2024-05-09T07:31:38.413Z,95707.00
2024-05-09T07:32:38.560Z,95703.00
2024-05-09T07:33:38.522Z,95705.00
2024-05-09T07:34:38.540Z,95705.00
2024-05-09T07:35:38.738Z,95706.00
2024-05-09T07:36:38.555Z,95709.00
2024-05-09T07:37:38.663Z,95707.00
2024-05-09T07:38:38.881Z,95707.00
2024-05-09T07:39:38.876Z,95709.00
2024-05-09T07:40:38.960Z,95708.00
2024-05-09T07:41:39.171Z,95709.00
2024-05-09T07:42:39.137Z,95707.00
2024-05-09T07:43:39.218Z,95707.00
2024-05-09T07:44:39.370Z,95705.00
2024-05-09T07:45:48.800Z,95702.00
2024-05-09T07:47:47.704Z,95700.00
2024-05-09T07:49:11.956Z,95700.00
2024-05-09T07:53:44.611Z,95696.00
2024-05-09T07:54:40.672Z,95695.00
2024-05-09T07:55:39.600Z,95696.00
2024-05-09T07:56:39.725Z,95692.00
2024-05-09T07:57:39.629Z,95692.00
2024-05-09T07:58:39.519Z,95693.00
2024-05-09T07:59:39.482Z,95693.00
2024-05-09T08:00:39.686Z,95692.00
2024-05-09T08:01:39.596Z,95693.00
2024-05-09T08:02:39.527Z,95693.00
2024-05-09T08:03:39.630Z,95690.00
2024-05-09T08:04:39.711Z,95690.00
2024-05-09T08:05:39.510Z,95691.00
2024-05-09T08:06:39.554Z,95692.00
2024-05-09T08:07:39.541Z,95692.00
2024-05-09T08:08:39.644Z,95692.00
2024-05-09T08:09:39.785Z,95691.00
2024-05-09T08:10:40.035Z,95689.00
2024-05-09T08:11:39.988Z,95690.00
2024-05-09T08:12:40.082Z,95689.00
2024-05-09T08:13:40.150Z,95687.00
2024-05-09T08:14:40.270Z,95687.00
2024-05-09T08:15:40.411Z,95687.00
2024-05-09T08:16:40.440Z,95688.00
2024-05-09T08:17:40.660Z,95686.00
2024-05-09T08:18:40.808Z,95685.00
2024-05-09T08:19:40.976Z,95687.00
2024-05-09T08:20:40.892Z,95686.00
2024-05-09T08:21:40.993Z,95686.00
2024-05-09T08:22:41.102Z,95688.00
2024-05-09T08:23:41.231Z,95684.00
2024-05-09T08:24:41.334Z,95686.00
2024-05-09T08:25:41.425Z,95682.00
2024-05-09T08:26:41.532Z,95683.00
2024-05-09T08:27:41.673Z,95681.00
2024-05-09T08:28:41.716Z,95679.00
2024-05-09T08:29:41.867Z,95682.00
2024-05-09T08:30:41.997Z,95677.00
2024-05-09T08:31:42.093Z,95677.00
2024-05-09T08:32:42.231Z,95677.00
2024-05-09T08:33:42.358Z,95675.00
2024-05-09T08:34:42.401Z,95676.00
2024-05-09T08:35:42.458Z,95678.00
2024-05-09T08:36:42.583Z,95678.00
2024-05-09T08:37:42.808Z,95681.00
2024-05-09T08:38:42.775Z,95682.00
2024-05-09T08:39:42.937Z,95679.00
2024-05-09T08:40:43.197Z,95677.00
2024-05-09T08:41:43.082Z,95678.00
2024-05-09T08:42:43.194Z,95679.00
2024-05-09T08:43:43.286Z,95678.00
2024-05-09T08:44:43.381Z,95677.00
2024-05-09T08:45:44.976Z,95679.00
2024-05-09T08:46:43.525Z,95676.00
2024-05-09T08:47:43.653Z,95674.00
2024-05-09T08:48:43.742Z,95674.00
2024-05-09T08:49:43.727Z,95673.00
2024-05-09T08:50:44.903Z,95672.00
2024-05-09T08:51:43.875Z,95671.00
2024-05-09T08:52:43.898Z,95669.00
2024-05-09T08:53:44.800Z,95672.00
2024-05-09T08:54:43.998Z,95671.00
2024-05-09T08:55:44.555Z,95672.00
2024-05-09T08:56:44.055Z,95671.00
2024-05-09T08:57:44.094Z,95671.00
2024-05-09T08:58:44.108Z,95668.00
2024-05-09T08:59:44.130Z,95670.00
2024-05-09T09:00:44.696Z,95672.00
2024-05-09T09:01:44.526Z,95667.00
2024-05-09T09:02:44.703Z,95669.00
2024-05-09T09:03:44.710Z,95666.00
2024-05-09T09:04:44.735Z,95663.00
2024-05-09T09:05:44.781Z,95663.00
2024-05-09T09:06:44.975Z,95660.00
2024-05-09T09:07:44.942Z,95664.00
2024-05-09T09:08:45.072Z,95660.00
2024-05-09T09:09:45.193Z,95660.00
2024-05-09T09:10:45.512Z,95654.00
2024-05-09T09:11:45.403Z,95658.00
2024-05-09T09:12:45.508Z,95657.00
2024-05-09T09:13:45.577Z,95654.00
2024-05-09T09:14:45.666Z,95656.00
2024-05-09T09:15:45.823Z,95653.00
2024-05-09T09:16:45.873Z,95655.00
2024-05-09T09:17:46.109Z,95654.00
2024-05-09T09:18:46.376Z,95653.00
2024-05-09T09:19:46.298Z,95649.00
2024-05-09T09:20:46.400Z,95648.00
2024-05-09T09:21:46.390Z,95651.00
2024-05-09T09:22:46.628Z,95649.00
2024-05-09T09:23:46.615Z,95648.00
2024-05-09T09:24:46.746Z,95648.00
2024-05-09T09:25:46.815Z,95644.00
2024-05-09T09:26:46.915Z,95645.00
2024-05-09T09:27:47.072Z,95643.00
2024-05-09T09:28:47.155Z,95645.00
2024-05-09T09:29:47.258Z,95640.00
2024-05-09T09:30:47.457Z,95642.00
2024-05-09T09:31:47.477Z,95642.00
2024-05-09T09:32:47.693Z,95644.00
2024-05-09T09:33:47.822Z,95644.00
2024-05-09T09:34:47.802Z,95642.00
2024-05-09T09:35:47.878Z,95639.00
2024-05-09T09:36:47.976Z,95637.00
2024-05-09T09:37:48.075Z,95639.00
2024-05-09T09:38:48.185Z,95639.00
2024-05-09T09:39:49.218Z,95642.00
2024-05-09T09:40:49.669Z,95636.00
2024-05-09T09:41:48.406Z,95637.00
2024-05-09T09:42:48.487Z,95634.00
2024-05-09T09:43:48.499Z,95630.00
2024-05-09T09:44:57.993Z,95624.00
2024-05-09T09:45:49.549Z,95625.00
2024-05-09T09:46:48.557Z,95621.00
2024-05-09T09:47:48.576Z,95621.00
2024-05-09T09:48:48.563Z,95623.00
2024-05-09T09:49:48.540Z,95623.00
2024-05-09T09:50:48.531Z,95620.00
2024-05-09T09:51:48.549Z,95620.00
2024-05-09T09:52:48.541Z,95618.00
2024-05-09T09:53:48.555Z,95617.00
2024-05-09T09:54:48.585Z,95617.00
2024-05-09T09:55:48.604Z,95618.00
2024-05-09T09:56:48.506Z,95617.00
2024-05-09T09:57:48.566Z,95616.00
2024-05-09T09:58:48.518Z,95617.00
2024-05-09T09:59:48.517Z,95615.00
2024-05-09T10:00:48.656Z,95617.00
2024-05-09T10:01:48.595Z,95617.00
2024-05-09T10:02:48.680Z,95614.00
2024-05-09T10:03:48.919Z,95611.00
2024-05-09T10:04:48.856Z,95610.00
2024-05-09T10:05:49.076Z,95606.00
2024-05-09T10:06:48.957Z,95603.00
2024-05-09T10:07:49.058Z,95603.00
2024-05-09T10:08:49.142Z,95604.00
2024-05-09T10:09:49.290Z,95601.00
2024-05-09T10:10:49.587Z,95602.00
2024-05-09T10:11:52.246Z,95599.00
2024-05-09T10:12:50.500Z,95595.00
2024-05-09T10:13:49.486Z,95594.00
2024-05-09T10:14:49.453Z,95591.00
2024-05-09T10:15:49.544Z,95590.00
2024-05-09T10:16:49.494Z,95587.00
2024-05-09T10:17:49.500Z,95585.00
2024-05-09T10:18:49.573Z,95579.00
2024-05-09T10:19:49.598Z,95577.00
2024-05-09T10:20:49.495Z,95577.00
2024-05-09T10:21:49.556Z,95576.00
2024-05-09T10:22:49.480Z,95579.00
2024-05-09T10:23:49.500Z,95574.00
2024-05-09T10:24:50.371Z,95577.00
2024-05-09T10:25:49.481Z,95578.00
2024-05-09T10:26:49.463Z,95575.00
2024-05-09T10:27:49.501Z,95574.00
2024-05-09T10:28:49.472Z,95570.00
2024-05-09T10:29:49.577Z,95571.00
2024-05-09T10:30:50.440Z,95568.00
2024-05-09T10:31:49.800Z,95567.00
2024-05-09T10:32:49.997Z,95569.00
2024-05-09T10:33:51.035Z,95570.00
2024-05-09T10:34:50.015Z,95569.00
2024-05-09T10:35:50.038Z,95571.00
2024-05-09T10:36:50.060Z,95571.00
2024-05-09T10:37:50.074Z,95568.00
2024-05-09T10:38:50.199Z,95567.00
2024-05-09T10:39:50.315Z,95564.00
2024-05-09T10:40:51.367Z,95564.00
2024-05-09T10:41:50.416Z,95564.00
2024-05-09T10:42:50.448Z,95565.00
2024-05-09T10:43:50.548Z,95559.00
2024-05-09T10:44:50.479Z,95557.00
2024-05-09T10:45:50.532Z,95560.00
2024-05-09T10:46:50.632Z,95556.00
2024-05-09T10:47:50.836Z,95554.00
2024-05-09T10:48:50.906Z,95556.00
2024-05-09T10:49:51.060Z,95553.00
2024-05-09T10:50:50.983Z,95552.00
2024-05-09T10:51:51.095Z,95552.00
2024-05-09T10:52:51.192Z,95553.00
2024-05-09T10:53:51.313Z,95549.00
2024-05-09T10:54:51.409Z,95545.00
2024-05-09T10:55:51.475Z,95553.00
2024-05-09T10:56:51.567Z,95542.00
2024-05-09T10:57:51.720Z,95541.00
2024-05-09T10:58:51.771Z,95543.00
2024-05-09T10:59:51.889Z,95541.00
2024-05-09T11:00:52.106Z,95538.00
2024-05-09T11:01:52.239Z,95535.00
2024-05-09T11:02:52.254Z,95534.00
2024-05-09T11:03:52.520Z,95535.00
2024-05-09T11:04:52.529Z,95535.00
2024-05-09T11:05:52.561Z,95530.00
2024-05-09T11:06:52.621Z,95532.00
2024-05-09T11:07:52.677Z,95526.00
2024-05-09T11:08:52.795Z,95525.00
2024-05-09T11:09:52.899Z,95528.00
2024-05-09T11:10:53.240Z,95524.00
2024-05-09T11:11:53.185Z,95526.00
2024-05-09T11:12:53.222Z,95520.00
2024-05-09T11:13:53.314Z,95521.00
2024-05-09T11:14:53.361Z,95524.00
2024-05-09T11:15:53.511Z,95521.00
2024-05-09T11:16:53.616Z,95523.00
2024-05-09T11:17:53.743Z,95522.00
2024-05-09T11:18:53.908Z,95520.00
2024-05-09T11:19:53.949Z,95520.00
2024-05-09T11:20:54.005Z,95519.00
2024-05-09T11:21:54.130Z,95514.00
2024-05-09T11:22:54.169Z,95514.00
2024-05-09T11:23:54.279Z,95511.00
2024-05-09T11:24:54.538Z,95510.00
2024-05-09T11:25:54.444Z,95513.00
2024-05-09T11:26:54.554Z,95510.00
2024-05-09T11:27:54.670Z,95506.00
2024-05-09T11:28:54.755Z,95508.00
2024-05-09T11:29:54.832Z,95505.00
2024-05-09T11:30:55.899Z,95502.00
2024-05-09T11:31:55.017Z,95512.00
2024-05-09T11:32:55.208Z,95510.00
2024-05-09T11:33:55.374Z,95504.00
2024-05-09T11:34:55.278Z,95503.00
2024-05-09T11:35:55.384Z,95503.00
2024-05-09T11:36:55.480Z,95502.00
2024-05-09T11:37:55.518Z,95499.00
2024-05-09T11:38:55.605Z,95499.00
2024-05-09T11:39:55.757Z,95501.00
2024-05-09T11:40:55.817Z,95497.00
2024-05-09T11:41:55.863Z,95494.00
2024-05-09T11:42:55.957Z,95500.00
2024-05-09T11:43:56.054Z,95497.00
2024-05-09T11:44:56.127Z,95493.00
2024-05-09T11:45:56.266Z,95485.00
2024-05-09T11:46:56.283Z,95485.00
2024-05-09T11:47:56.459Z,95490.00
2024-05-09T11:48:56.643Z,95491.00
2024-05-09T11:49:56.756Z,95479.00
2024-05-09T11:50:56.696Z,95486.00
2024-05-09T11:51:56.796Z,95484.00
2024-05-09T11:52:56.860Z,95483.00
2024-05-09T11:53:56.943Z,95483.00